Time;durP1;ratioP1;P1;durP2;ratioP2;P2;SDS_P1;SDS_P2;PMS_P1;PMS_P2;Temp;Humidity;BMP_temperature;BMP_pressure;BME280_temperature;BME280_humidity;BME280_pressure;Samples;Min_cycle;Max_cycle;Signal;HPM_P1;HPM_P2
2022/02/11 08:48:29;;;;;;;2.30;1.50;;;;;;;9.29;63.58;99863.41;5171919;27;20564;-83
2022/02/11 08:50:57;;;;;;;4.40;1.47;;;;;;;11.45;59.24;99895.97;5140806;27;38838;-85
2022/02/11 08:53:24;;;;;;;1.27;1.17;;;;;;;12.20;53.28;99924.88;5132012;27;41039;-84
2022/02/11 08:55:53;;;;;;;2.93;1.13;;;;;;;11.34;54.64;99911.53;5136402;27;43070;-85
2022/02/11 08:58:21;;;;;;;3.13;1.53;;;;;;;10.84;56.06;99925.41;5153069;27;41176;-86
2022/02/11 09:00:49;;;;;;;1.20;1.10;;;;;;;10.39;57.02;99910.66;5141650;27;38555;-83
2022/02/11 09:03:17;;;;;;;2.60;1.23;;;;;;;10.27;57.36;99919.16;5149438;27;42035;-84
2022/02/11 09:05:46;;;;;;;2.03;1.43;;;;;;;10.18;56.21;99940.75;5136853;27;42543;-85
2022/02/11 09:08:14;;;;;;;1.63;1.23;;;;;;;9.97;57.55;99936.38;5152968;27;40994;-85
2022/02/11 09:10:41;;;;;;;2.33;1.30;;;;;;;9.65;57.05;99924.47;5165440;27;40642;-85
2022/02/11 09:13:09;;;;;;;1.57;1.20;;;;;;;9.34;58.15;99915.19;5132061;27;42135;-86
2022/02/11 09:15:36;;;;;;;1.43;1.27;;;;;;;9.52;57.55;99929.41;5135205;27;41758;-86
2022/02/11 09:18:04;;;;;;;2.70;1.37;;;;;;;9.21;58.90;99923.66;5152481;27;40647;-84
2022/02/11 09:20:32;;;;;;;1.80;1.40;;;;;;;9.61;58.02;99913.19;5149566;27;39075;-86
2022/02/11 09:23:01;;;;;;;1.83;1.57;;;;;;;9.98;57.53;99912.47;5131889;27;41995;-88
2022/02/11 09:25:29;;;;;;;2.40;1.33;;;;;;;10.29;57.98;99930.56;5133598;27;43024;-86
2022/02/11 09:27:57;;;;;;;2.43;1.30;;;;;;;10.12;56.04;99948.94;5152987;27;40924;-84
2022/02/11 09:30:25;;;;;;;2.97;1.40;;;;;;;9.71;56.51;99927.75;5152001;27;42350;-84
2022/02/11 09:32:55;;;;;;;1.33;1.20;;;;;;;9.63;56.88;99929.84;5152478;27;40971;-89
2022/02/11 09:35:24;;;;;;;1.87;1.33;;;;;;;9.86;56.88;99962.41;5151935;27;41505;-86
2022/02/11 09:37:52;;;;;;;2.40;1.47;;;;;;;9.50;56.49;99947.16;5152689;27;41126;-84
2022/02/11 09:40:21;;;;;;;5.00;1.13;;;;;;;9.38;56.51;99947.66;5150929;27;38879;-89
2022/02/11 09:42:53;;;;;;;1.63;1.10;;;;;;;9.11;57.03;99973.38;5131720;27;42046;-88
2022/02/11 09:45:23;;;;;;;2.67;1.33;;;;;;;8.92;57.88;99977.63;5149230;27;42542;-85
2022/02/11 09:47:50;;;;;;;2.60;1.60;;;;;;;8.70;58.76;99966.16;5152088;27;42786;-84
2022/02/11 09:50:22;;;;;;;3.17;1.57;;;;;;;8.50;59.18;99966.91;5152368;27;39000;-88
2022/02/11 09:52:52;;;;;;;1.87;1.50;;;;;;;8.41;59.91;99977.75;5152579;27;41731;-86
2022/02/11 09:55:37;;;;;;;3.87;1.43;;;;;;;8.21;60.34;99966.13;5151964;27;42943;-84
2022/02/11 09:58:08;;;;;;;1.83;1.20;;;;;;;8.17;59.56;99985.59;5148164;27;40832;-85
2022/02/11 10:00:38;;;;;;;2.73;1.23;;;;;;;8.06;60.58;99989.53;5137802;27;39166;-83
2022/02/11 10:03:16;;;;;;;2.07;1.10;;;;;;;8.01;60.93;99994.97;5155401;27;41499;-84
2022/02/11 10:05:46;;;;;;;3.87;1.60;;;;;;;7.97;61.09;100003.88;5137517;27;42118;-86
2022/02/11 10:08:13;;;;;;;4.57;1.43;;;;;;;7.76;60.93;99972.97;5154712;27;42109;-86
2022/02/11 10:10:47;;;;;;;1.63;1.23;;;;;;;7.85;61.34;99999.03;5137293;27;42670;-83
2022/02/11 10:13:18;;;;;;;1.83;1.20;;;;;;;7.90;60.90;100002.38;5138157;27;40873;-83
2022/02/11 10:15:49;;;;;;;1.47;0.87;;;;;;;8.11;61.71;100009.56;5132393;27;41722;-82
2022/02/11 10:18:20;;;;;;;3.17;1.40;;;;;;;8.48;60.32;100026.81;5117093;27;42392;-84
2022/02/11 10:20:51;;;;;;;4.13;1.23;;;;;;;9.58;59.25;100029.66;5136220;27;40813;-83
2022/02/11 10:23:21;;;;;;;1.50;0.90;;;;;;;10.01;56.48;100041.19;5138016;27;44143;-83
2022/02/11 10:26:00;;;;;;;2.70;1.00;;;;;;;9.73;56.52;100050.22;5131998;27;43519;-82
2022/02/11 10:28:32;;;;;;;1.33;1.23;;;;;;;9.59;56.65;100049.91;5131190;27;43079;-83
2022/02/11 10:31:11;;;;;;;1.37;0.93;;;;;;;9.38;56.86;100052.53;5138618;27;39768;-84
2022/02/11 10:33:56;;;;;;;1.77;0.90;;;;;;;9.13;57.65;100031.47;5155008;27;41095;-82
2022/02/11 10:36:27;;;;;;;1.80;1.10;;;;;;;9.02;57.57;100052.16;5136911;27;43935;-86
2022/02/11 10:39:05;;;;;;;1.47;0.93;;;;;;;8.95;58.04;100049.72;5137761;27;41345;-86
2022/02/11 10:41:36;;;;;;;3.00;1.20;;;;;;;8.78;58.65;100041.53;5125435;27;38749;-84
2022/02/11 10:44:09;;;;;;;1.23;0.87;;;;;;;8.74;58.86;100037.31;5131030;27;41758;-83
2022/02/11 10:46:40;;;;;;;1.90;1.20;;;;;;;8.75;59.25;100044.31;5127775;27;41879;-84
2022/02/11 10:49:08;;;;;;;1.27;0.87;;;;;;;8.80;59.18;100042.34;5151663;27;43285;-82
2022/02/11 10:51:40;;;;;;;1.23;0.77;;;;;;;9.09;59.65;100057.13;5124858;27;39117;-83
2022/02/11 10:54:27;;;;;;;1.43;1.00;;;;;;;9.02;59.70;100059.13;5130988;27;41975;-84
2022/02/11 10:56:58;;;;;;;1.10;1.00;;;;;;;9.02;59.83;100060.06;5130701;27;42145;-84
2022/02/11 10:59:28;;;;;;;2.53;1.50;;;;;;;9.88;58.63;100069.94;5137436;27;41192;-83
2022/02/11 11:01:57;;;;;;;3.10;1.40;;;;;;;11.76;54.97;100076.63;5121775;27;39659;-85
2022/02/11 11:04:26;;;;;;;3.13;1.40;;;;;;;15.77;49.03;100116.34;5116432;27;40368;-83
2022/02/11 11:06:55;;;;;;;1.37;1.00;;;;;;;19.08;40.84;100155.50;5130389;27;44359;-85
2022/02/11 11:09:25;;;;;;;1.07;0.70;;;;;;;21.86;35.40;100200.59;5136621;27;42575;-84
2022/02/11 11:11:54;;;;;;;1.30;0.90;;;;;;;24.63;30.92;100217.81;5138786;27;39698;-87
2022/02/11 11:14:25;;;;;;;1.53;1.20;;;;;;;23.23;30.62;100198.94;5116118;27;41241;-86
2022/02/11 11:16:55;;;;;;;2.17;0.90;;;;;;;21.26;32.64;100197.84;5126635;27;41958;-86
2022/02/11 11:19:25;;;;;;;1.40;0.90;;;;;;;19.02;34.47;100189.91;5116142;27;42408;-85
2022/02/11 11:24:45;;;;;;;1.00;0.90;;;;;;;15.67;40.42;100123.22;5140497;27;40641;-84
2022/02/11 11:27:12;;;;;;;1.40;0.80;;;;;;;14.73;42.31;100128.06;5153010;27;41560;-83
2022/02/11 11:29:42;;;;;;;2.80;1.23;;;;;;;13.74;43.74;100100.91;5136417;27;41428;-85
2022/02/11 11:32:13;;;;;;;2.90;1.13;;;;;;;13.07;45.25;100101.91;5153543;27;39880;-85
2022/02/11 11:34:41;;;;;;;1.77;0.90;;;;;;;12.64;46.15;100102.38;5151261;27;41636;-87
2022/02/11 11:37:10;;;;;;;3.03;1.10;;;;;;;11.99;47.46;100072.84;5136599;27;42966;-84
2022/02/11 11:39:40;;;;;;;1.53;1.20;;;;;;;11.60;48.19;100096.00;5133535;27;42432;-84
2022/02/11 11:42:13;;;;;;;1.37;0.90;;;;;;;11.34;48.95;100083.94;5131935;27;39139;-85
2022/02/11 11:44:53;;;;;;;5.30;1.13;;;;;;;11.10;49.93;100102.69;5154040;27;41091;-84
2022/02/11 11:47:29;;;;;;;2.07;1.10;;;;;;;10.82;51.15;100088.91;5135871;27;43125;-85
2022/02/11 11:49:59;;;;;;;1.07;0.97;;;;;;;10.62;52.54;100088.94;5136858;27;42324;-84
2022/02/11 11:52:41;;;;;;;4.43;1.10;;;;;;;10.50;53.86;100086.81;5116488;27;38847;-81
2022/02/11 11:55:18;;;;;;;2.27;0.93;;;;;;;11.38;53.46;100069.56;5115424;27;40673;-85
2022/02/11 11:57:46;;;;;;;1.00;0.90;;;;;;;12.24;50.63;100099.06;5135993;27;41683;-82
2022/02/11 12:00:33;;;;;;;2.20;0.83;;;;;;;11.66;50.38;100101.84;5152967;27;43054;-80
2022/02/11 12:03:01;;;;;;;2.53;1.20;;;;;;;11.19;52.22;100084.63;5136168;27;38778;-83
2022/02/11 12:05:45;;;;;;;1.00;0.93;;;;;;;10.82;52.40;100094.22;5136080;27;42204;-84
2022/02/11 12:08:12;;;;;;;5.70;1.73;;;;;;;10.37;53.54;100084.69;5135667;27;43619;-83
2022/02/11 12:10:40;;;;;;;3.67;1.20;;;;;;;10.14;54.84;100060.88;5135656;27;40859;-84
2022/02/11 12:13:08;;;;;;;2.77;1.03;;;;;;;10.42;55.14;100073.88;5153189;27;38881;-83
2022/02/11 12:15:37;;;;;;;2.00;1.30;;;;;;;11.87;54.23;100074.31;5149231;27;40737;-82
2022/02/11 12:18:05;;;;;;;1.00;0.77;;;;;;;14.61;47.09;100128.78;5114878;27;44292;-83
2022/02/11 12:20:33;;;;;;;1.20;0.93;;;;;;;16.42;44.04;100145.97;5117858;27;42675;-83
2022/02/11 12:28:41;;;;;;;3.33;1.20;;;;;;;20.70;34.82;100208.81;5135710;27;41569;-84
2022/02/11 12:31:11;;;;;;;2.90;1.20;;;;;;;21.33;32.85;100207.09;5152486;27;41787;-83
2022/02/11 12:33:39;;;;;;;1.97;0.83;;;;;;;19.46;33.97;100222.38;5153594;27;39913;-87
2022/02/11 12:36:11;;;;;;;1.30;0.80;;;;;;;17.66;35.75;100189.25;5134994;27;41880;-81
2022/02/11 12:38:39;;;;;;;2.30;0.80;;;;;;;16.44;38.05;100186.84;5154782;27;43159;-85
2022/02/11 12:41:07;;;;;;;1.47;1.00;;;;;;;15.29;41.08;100173.63;5134784;27;41271;-83
2022/02/11 12:43:35;;;;;;;1.73;0.80;;;;;;;14.01;43.35;100138.47;5135853;27;40020;-83
2022/02/11 12:46:04;;;;;;;1.53;0.70;;;;;;;13.24;45.68;100136.44;5152485;27;42725;-82
2022/02/11 12:48:35;;;;;;;1.03;0.80;;;;;;;12.74;47.88;100141.69;5135754;27;43224;-82
2022/02/11 12:51:10;;;;;;;1.93;0.93;;;;;;;11.88;51.45;100120.31;5134844;27;42677;-87
2022/02/11 12:53:38;;;;;;;1.00;0.90;;;;;;;11.24;52.24;100114.47;5136253;27;38979;-86
2022/02/11 12:56:13;;;;;;;3.40;1.20;;;;;;;10.70;54.82;100089.47;5151903;27;43384;-85
2022/02/11 12:58:40;;;;;;;1.07;0.97;;;;;;;10.21;56.03;100083.59;5135887;27;43371;-87
2022/02/11 13:01:08;;;;;;;3.70;1.67;;;;;;;11.13;55.62;100070.72;5134455;27;42420;-85
2022/02/11 13:03:37;;;;;;;1.27;0.97;;;;;;;14.24;51.29;100091.84;5153297;27;39998;-87
2022/02/11 13:06:05;;;;;;;3.03;1.13;;;;;;;16.77;45.92;100139.16;5152027;27;41715;-86
2022/02/11 13:08:33;;;;;;;0.70;0.70;;;;;;;18.71;41.64;100169.03;5135318;27;41705;-86
2022/02/11 13:11:04;;;;;;;1.37;0.77;;;;;;;19.75;39.87;100179.81;5134113;27;42858;-89
2022/02/11 13:13:32;;;;;;;2.07;0.80;;;;;;;18.55;39.69;100179.16;5135442;27;39070;-88
2022/02/11 13:16:03;;;;;;;1.50;0.70;;;;;;;17.11;42.90;100163.59;5134247;27;42017;-87
2022/02/11 13:18:35;;;;;;;1.77;0.93;;;;;;;16.60;43.37;100165.25;5135150;27;41731;-86
2022/02/11 13:21:07;;;;;;;1.00;0.90;;;;;;;16.38;42.91;100150.66;5133850;27;40694;-85
2022/02/11 13:23:35;;;;;;;1.90;0.73;;;;;;;16.24;43.66;100168.53;5135306;27;39084;-87
2022/02/11 13:26:12;;;;;;;1.07;0.97;;;;;;;17.06;43.29;100163.06;5134430;27;42084;-85
2022/02/11 13:28:44;;;;;;;2.37;0.93;;;;;;;18.08;39.46;100180.81;5134844;27;43410;-87
2022/02/11 13:31:12;;;;;;;0.80;0.80;;;;;;;17.87;39.31;100182.38;5133969;27;41776;-85
2022/02/11 13:33:40;;;;;;;1.87;0.90;;;;;;;16.92;40.82;100155.97;5136102;27;40361;-86
2022/02/11 13:36:11;;;;;;;1.17;0.70;;;;;;;15.92;42.02;100146.56;5138046;27;42410;-84
2022/02/11 13:38:49;;;;;;;3.90;1.27;;;;;;;14.83;43.22;100148.88;5138435;27;41913;-84
2022/02/11 13:41:17;;;;;;;2.20;1.00;;;;;;;14.11;44.99;100128.13;5138455;27;42017;-83
2022/02/11 13:43:50;;;;;;;1.23;0.80;;;;;;;13.46;45.07;100167.25;5138192;27;41395;-81
2022/02/11 13:46:26;;;;;;;0.67;0.60;;;;;;;12.68;47.42;100162.44;5136703;27;41736;-84
2022/02/11 13:48:55;;;;;;;1.57;0.83;;;;;;;11.91;49.38;100146.72;5155710;27;41668;-85
2022/02/11 13:51:24;;;;;;;2.30;0.67;;;;;;;11.32;50.00;100133.53;5137801;27;43485;-85
2022/02/11 13:53:53;;;;;;;1.20;0.80;;;;;;;10.94;50.45;100128.13;5155380;27;38962;-83
2022/02/11 13:56:23;;;;;;;1.40;0.80;;;;;;;10.82;51.68;100123.38;5136292;27;40571;-84
2022/02/11 13:59:06;;;;;;;1.40;0.80;;;;;;;11.24;51.45;100130.38;5142899;27;43056;-86
2022/02/11 14:01:36;;;;;;;0.80;0.80;;;;;;;12.88;48.63;100143.66;5124302;27;42646;-85
2022/02/11 14:04:06;;;;;;;0.60;0.60;;;;;;;14.06;45.23;100135.56;5127283;27;41059;-83
2022/02/11 14:06:37;;;;;;;3.20;1.27;;;;;;;15.02;41.98;100187.69;5154421;27;40693;-87
2022/02/11 14:09:06;;;;;;;2.67;0.97;;;;;;;15.52;39.62;100217.59;5143543;27;44721;-84
2022/02/11 14:11:36;;;;;;;1.97;0.80;;;;;;;16.33;39.10;100224.06;5155656;27;41852;-84
2022/02/11 14:14:12;;;;;;;1.27;0.60;;;;;;;16.85;35.69;100257.22;5115244;27;40253;-82
2022/02/11 14:16:39;;;;;;;2.00;0.90;;;;;;;17.42;35.50;100231.97;5129087;27;41080;-85
2022/02/11 14:19:07;;;;;;;0.90;0.70;;;;;;;17.82;34.23;100252.38;5128168;27;43254;-88
2022/02/11 14:21:36;;;;;;;2.00;0.53;;;;;;;18.21;34.50;100248.69;5154510;27;42310;-89
2022/02/11 14:24:05;;;;;;;2.63;0.90;;;;;;;18.01;31.37;100227.81;5134854;27;39762;-89
2022/02/11 14:26:32;;;;;;;0.90;0.60;;;;;;;18.22;32.40;100254.91;5119516;27;40421;-88
2022/02/11 14:29:00;;;;;;;1.93;0.60;;;;;;;18.54;31.95;100277.59;5142683;27;42576;-88
2022/02/11 14:31:28;;;;;;;0.50;0.50;;;;;;;18.55;31.31;100295.38;5128846;27;41682;-86
2022/02/11 14:33:55;;;;;;;2.60;0.93;;;;;;;18.64;31.02;100320.75;5137135;27;40164;-87
2022/02/11 14:36:23;;;;;;;3.00;0.93;;;;;;;18.44;31.14;100294.44;5125963;27;40674;-85
2022/02/11 14:38:52;;;;;;;1.00;0.50;;;;;;;18.54;31.43;100322.34;5131235;27;43144;-86
2022/02/11 14:44:05;;;;;;;1.63;0.70;;;;;;;18.62;31.47;100322.69;5133982;27;38926;-86
2022/02/11 14:46:33;;;;;;;1.53;0.73;;;;;;;18.47;32.28;100310.34;5138522;27;42721;-86
2022/02/11 14:49:00;;;;;;;2.07;0.97;;;;;;;17.42;32.20;100312.34;5118068;27;41499;-87
2022/02/11 14:51:28;;;;;;;1.60;0.70;;;;;;;16.35;33.27;100327.31;5128673;27;43246;-87
2022/02/11 14:53:58;;;;;;;1.03;0.70;;;;;;;15.55;34.23;100313.59;5144427;27;39952;-84
2022/02/11 14:56:25;;;;;;;2.03;0.80;;;;;;;14.86;35.84;100292.69;5129098;27;43111;-84
2022/02/11 14:58:53;;;;;;;1.97;1.03;;;;;;;14.27;36.34;100281.75;5141551;27;42786;-86
2022/02/11 15:01:21;;;;;;;1.93;0.80;;;;;;;13.88;38.28;100292.75;5124841;27;43536;-84
2022/02/11 15:03:48;;;;;;;2.40;0.50;;;;;;;13.44;39.55;100302.22;5118954;27;38584;-84
2022/02/11 15:06:16;;;;;;;0.83;0.70;;;;;;;12.99;39.29;100295.56;5128957;27;42913;-87
2022/02/11 15:08:45;;;;;;;0.83;0.67;;;;;;;12.82;39.43;100311.50;5126938;27;44700;-84
2022/02/11 15:11:14;;;;;;;1.83;0.60;;;;;;;12.55;40.60;100289.75;5133109;27;44870;-84
2022/02/11 15:13:42;;;;;;;1.27;0.73;;;;;;;12.39;41.11;100286.94;5123547;27;39010;-82
2022/02/11 15:16:10;;;;;;;2.57;0.80;;;;;;;12.02;42.35;100279.81;5140499;27;42072;-84
2022/02/11 15:18:39;;;;;;;1.73;0.63;;;;;;;11.75;42.77;100260.69;5137282;27;41567;-86
2022/02/11 15:21:07;;;;;;;2.13;0.90;;;;;;;11.49;43.54;100258.31;5125801;27;42510;-83
2022/02/11 15:23:35;;;;;;;0.73;0.60;;;;;;;11.19;43.27;100267.59;5119006;27;39808;-85
2022/02/11 15:26:05;;;;;;;3.17;1.13;;;;;;;10.91;44.12;100255.50;5148908;27;42273;-84
2022/02/11 15:28:36;;;;;;;1.97;0.90;;;;;;;10.66;44.38;100257.41;5128102;27;41894;-83
2022/02/11 15:31:08;;;;;;;2.97;0.90;;;;;;;10.49;44.84;100268.72;5120677;27;43047;-84
2022/02/11 15:33:36;;;;;;;2.73;1.10;;;;;;;10.22;45.48;100257.41;5144498;27;40835;-88
2022/02/11 15:36:04;;;;;;;3.93;0.90;;;;;;;10.05;45.33;100254.50;5137933;27;40511;-85
2022/02/11 15:38:32;;;;;;;1.83;0.90;;;;;;;9.97;46.27;100264.53;5127541;27;44137;-84
2022/02/11 15:40:59;;;;;;;1.37;0.73;;;;;;;9.81;46.02;100268.66;5123225;27;42676;-85
2022/02/11 15:43:29;;;;;;;1.83;0.80;;;;;;;9.75;46.22;100280.34;5128638;27;39165;-86
2022/02/11 15:45:58;;;;;;;1.77;0.80;;;;;;;9.62;46.75;100277.28;5133354;27;42265;-85
2022/02/11 15:48:26;;;;;;;0.90;0.70;;;;;;;9.44;47.24;100274.41;5137562;27;44144;-83
2022/02/11 15:50:54;;;;;;;1.17;0.80;;;;;;;9.36;47.69;100266.75;5123902;27;41152;-86
2022/02/11 15:53:21;;;;;;;1.73;0.80;;;;;;;9.16;47.04;100272.69;5117258;27;40381;-82
2022/02/11 15:55:49;;;;;;;2.60;1.27;;;;;;;9.02;47.24;100278.44;5133124;27;42561;-84
2022/02/11 15:58:17;;;;;;;1.67;0.60;;;;;;;8.89;46.70;100287.72;5133618;27;41338;-89
2022/02/11 16:00:45;;;;;;;3.00;0.97;;;;;;;8.65;46.08;100284.06;5123726;27;41270;-86
2022/02/11 16:03:14;;;;;;;1.57;0.80;;;;;;;8.73;47.34;100310.25;5143138;27;40213;-84
2022/02/11 16:05:41;;;;;;;6.03;0.93;;;;;;;8.58;47.70;100313.38;5120711;27;43333;-85
2022/02/11 16:08:09;;;;;;;1.37;0.83;;;;;;;8.47;47.73;100307.56;5134147;27;44082;-81
2022/02/11 16:10:37;;;;;;;1.10;0.80;;;;;;;8.50;48.18;100320.69;5148238;27;42023;-82
2022/02/11 16:13:04;;;;;;;2.23;0.90;;;;;;;8.32;48.32;100310.66;5134884;27;39094;-83
2022/02/11 16:15:32;;;;;;;1.30;1.20;;;;;;;8.39;49.09;100328.06;5129472;27;42682;-82
2022/02/11 16:18:03;;;;;;;2.90;0.60;;;;;;;8.25;49.26;100305.56;5134495;27;42808;-85
2022/02/11 16:20:35;;;;;;;5.30;1.73;;;;;;;8.24;48.56;100314.38;5129508;27;42620;-84
2022/02/11 16:23:04;;;;;;;2.20;1.13;;;;;;;7.87;49.04;100266.22;5134914;27;39940;-81
2022/02/11 16:25:34;;;;;;;0.73;0.70;;;;;;;8.11;48.74;100304.22;5117877;27;40630;-84
2022/02/11 16:28:03;;;;;;;2.00;0.87;;;;;;;7.76;49.03;100276.22;5130650;27;43408;-88
2022/02/11 16:30:30;;;;;;;3.83;0.97;;;;;;;7.73;50.16;100314.09;5138225;27;43246;-84
2022/02/11 16:32:59;;;;;;;1.17;0.60;;;;;;;7.62;49.81;100312.66;5129034;27;39773;-84
2022/02/11 16:35:27;;;;;;;3.33;1.00;;;;;;;7.34;50.70;100280.91;5134235;27;41760;-84
2022/02/11 16:37:56;;;;;;;1.10;0.67;;;;;;;7.56;50.74;100337.41;5149382;27;42643;-82
2022/02/11 16:40:24;;;;;;;1.60;0.70;;;;;;;7.44;51.46;100330.69;5123481;27;41234;-81
2022/02/11 16:42:51;;;;;;;1.13;0.60;;;;;;;7.35;51.76;100315.13;5142503;27;39848;-82
2022/02/11 16:45:19;;;;;;;1.30;0.83;;;;;;;7.34;51.33;100318.66;5120591;27;43770;-82
2022/02/11 16:47:47;;;;;;;2.87;0.60;;;;;;;7.39;51.57;100337.88;5132789;27;41796;-82
2022/02/11 16:50:14;;;;;;;1.67;0.80;;;;;;;7.37;51.47;100350.22;5135721;27;42890;-83
2022/02/11 16:52:42;;;;;;;1.20;0.60;;;;;;;7.30;51.75;100351.25;5150080;27;39892;-81
2022/02/11 16:55:12;;;;;;;2.73;0.70;;;;;;;7.29;51.69;100352.19;5126736;27;40892;-83
2022/02/11 16:57:40;;;;;;;1.80;0.90;;;;;;;7.28;51.83;100353.09;5148032;27;42595;-84
2022/02/11 17:00:11;;;;;;;1.03;0.87;;;;;;;7.25;51.81;100339.97;5118027;27;41192;-85
2022/02/11 17:02:39;;;;;;;1.47;1.33;;;;;;;7.25;51.87;100350.53;5118191;27;40247;-84
2022/02/11 17:05:08;;;;;;;3.27;0.90;;;;;;;7.28;51.87;100361.00;5130868;27;41038;-84
2022/02/11 17:07:35;;;;;;;2.00;1.03;;;;;;;7.19;51.89;100355.94;5130719;27;42981;-82
2022/02/11 17:10:03;;;;;;;1.40;0.60;;;;;;;7.23;51.93;100368.13;5121262;27;40961;-84
2022/02/11 17:12:33;;;;;;;0.90;0.90;;;;;;;7.08;52.19;100350.94;5129628;27;39033;-83
2022/02/11 17:15:02;;;;;;;1.97;0.77;;;;;;;7.02;52.47;100347.59;5129131;27;42262;-84
2022/02/11 17:17:30;;;;;;;3.40;1.00;;;;;;;6.99;52.62;100355.56;5138521;27;44083;-84
2022/02/11 17:19:57;;;;;;;2.23;1.73;;;;;;;6.96;52.89;100369.66;5134459;27;40798;-84
2022/02/11 17:22:25;;;;;;;2.40;1.20;;;;;;;6.84;52.89;100375.22;5130367;27;39984;-87
2022/02/11 17:24:53;;;;;;;1.03;1.00;;;;;;;6.59;53.63;100364.38;5128158;27;40861;-85
2022/02/11 17:27:21;;;;;;;4.77;1.27;;;;;;;6.46;53.35;100368.16;5133445;27;42620;-85
2022/02/11 17:29:51;;;;;;;2.03;1.23;;;;;;;6.46;53.59;100383.97;5120527;27;41071;-84
2022/02/11 17:32:19;;;;;;;0.97;0.87;;;;;;;6.37;53.86;100387.66;5131159;27;38714;-82
2022/02/11 17:34:47;;;;;;;4.47;1.40;;;;;;;6.29;54.00;100383.47;5127439;27;42434;-83
2022/02/11 17:37:14;;;;;;;2.40;0.77;;;;;;;6.41;54.36;100407.75;5123320;27;42107;-83
2022/02/11 17:39:43;;;;;;;3.27;1.03;;;;;;;6.43;54.14;100399.81;5133936;27;41302;-85
2022/02/11 17:42:11;;;;;;;1.90;1.07;;;;;;;6.40;53.93;100397.28;5133316;27;40432;-84
2022/02/11 17:44:39;;;;;;;4.00;1.03;;;;;;;6.49;53.91;100402.31;5129115;27;42399;-84
2022/02/11 17:47:08;;;;;;;2.93;1.23;;;;;;;6.42;53.90;100390.22;5132519;27;44871;-82
2022/02/11 17:49:36;;;;;;;3.07;0.77;;;;;;;6.45;54.24;100393.63;5124591;27;41120;-83
2022/02/11 17:52:04;;;;;;;1.73;1.23;;;;;;;6.39;53.92;100392.91;5145337;27;40020;-82
2022/02/11 17:54:33;;;;;;;4.67;1.07;;;;;;;6.41;54.10;100401.63;5137499;27;40364;-83
2022/02/11 17:57:01;;;;;;;4.67;0.90;;;;;;;6.39;54.56;100408.69;5130452;27;42015;-83
2022/02/11 17:59:28;;;;;;;2.03;0.80;;;;;;;6.36;54.35;100406.13;5132085;27;42240;-81
2022/02/11 18:01:56;;;;;;;0.80;0.77;;;;;;;6.38;54.19;100418.34;5121656;27;40052;-86
2022/02/11 18:04:25;;;;;;;1.03;0.87;;;;;;;6.35;54.02;100414.91;5123526;27;41859;-83
2022/02/11 18:06:53;;;;;;;2.60;1.10;;;;;;;6.38;54.96;100412.22;5125829;27;42151;-83
2022/02/11 18:09:21;;;;;;;2.27;1.20;;;;;;;6.38;54.64;100422.75;5113713;27;44028;-83
2022/02/11 18:11:48;;;;;;;1.67;0.97;;;;;;;6.47;54.64;100443.59;5154038;27;39967;-83
2022/02/11 18:14:16;;;;;;;2.53;0.90;;;;;;;6.35;54.70;100426.28;5135326;27;42863;-83
2022/02/11 18:16:46;;;;;;;3.03;1.10;;;;;;;6.35;54.90;100428.94;5132354;27;42697;-83
2022/02/11 18:19:13;;;;;;;2.13;0.93;;;;;;;6.32;55.05;100441.25;5154137;27;42285;-83
2022/02/11 18:21:42;;;;;;;1.10;0.83;;;;;;;6.26;54.86;100438.78;5136366;27;40625;-83
2022/02/11 18:24:10;;;;;;;1.53;0.90;;;;;;;6.30;55.37;100456.25;5138651;27;41795;-83
2022/02/11 18:26:38;;;;;;;2.37;1.27;;;;;;;6.12;55.69;100437.28;5128167;27;41595;-83
2022/02/11 18:29:06;;;;;;;1.17;1.07;;;;;;;6.10;55.07;100438.19;5146293;27;42191;-83
2022/02/11 18:31:33;;;;;;;2.10;1.00;;;;;;;5.93;55.36;100433.28;5131556;27;39141;-83
2022/02/11 18:34:02;;;;;;;3.50;1.17;;;;;;;5.91;55.45;100442.94;5120512;27;40778;-83
2022/02/11 18:36:30;;;;;;;4.83;1.00;;;;;;;5.83;55.50;100450.06;5146316;27;44359;-83
2022/02/11 18:39:00;;;;;;;1.03;0.93;;;;;;;5.80;56.07;100463.28;5145508;27;43907;-83
2022/02/11 18:41:27;;;;;;;1.50;0.90;;;;;;;5.67;56.31;100453.88;5144371;27;39196;-82
2022/02/11 18:43:55;;;;;;;0.73;0.63;;;;;;;5.39;56.39;100441.19;5150486;27;42090;-84
2022/02/11 18:46:23;;;;;;;1.47;1.30;;;;;;;5.27;56.71;100440.50;5124124;27;42160;-83
2022/02/11 18:48:51;;;;;;;4.00;1.87;;;;;;;5.27;57.00;100457.13;5133893;27;41286;-83
2022/02/11 18:51:18;;;;;;;4.23;1.73;;;;;;;5.10;57.30;100456.50;5115915;27;39912;-82
2022/02/11 18:53:46;;;;;;;3.83;1.97;;;;;;;4.98;57.45;100456.69;5133894;27;41811;-83
2022/02/11 18:56:15;;;;;;;2.60;1.30;;;;;;;4.95;57.76;100475.97;5147717;27;42000;-83
2022/02/11 18:58:50;;;;;;;3.10;1.30;;;;;;;4.77;58.21;100462.22;5140648;27;43268;-82
2022/02/11 19:01:19;;;;;;;1.20;1.10;;;;;;;4.79;58.27;100487.59;5131202;27;38786;-83
2022/02/11 19:03:47;;;;;;;2.83;1.10;;;;;;;4.71;58.11;100481.53;5135469;27;42461;-82
2022/02/11 19:06:14;;;;;;;3.67;1.40;;;;;;;4.47;58.30;100451.22;5152110;27;42915;-82
2022/02/11 19:08:42;;;;;;;3.33;1.13;;;;;;;4.70;58.27;100503.41;5136833;27;43223;-82
2022/02/11 19:11:10;;;;;;;1.07;0.97;;;;;;;4.55;58.41;100485.25;5135926;27;39206;-81
2022/02/11 19:13:39;;;;;;;1.23;1.10;;;;;;;4.55;58.53;100494.00;5127125;27;42144;-82
2022/02/11 19:16:07;;;;;;;1.43;1.20;;;;;;;4.51;59.15;100486.19;5135624;27;41640;-81
2022/02/11 19:18:34;;;;;;;5.30;1.30;;;;;;;4.65;59.12;100507.88;5140899;27;41226;-82
2022/02/11 19:21:02;;;;;;;1.20;1.07;;;;;;;4.57;58.88;100489.63;5130612;27;40289;-83
2022/02/11 19:23:30;;;;;;;3.30;1.20;;;;;;;4.70;58.99;100512.16;5132524;27;40664;-82
2022/02/11 19:25:57;;;;;;;2.93;1.13;;;;;;;4.67;58.83;100504.34;5114444;27;43536;-84
2022/02/11 19:28:25;;;;;;;4.10;1.20;;;;;;;4.72;58.52;100513.91;5122332;27;40985;-82
2022/02/11 19:30:56;;;;;;;2.93;1.10;;;;;;;4.76;58.49;100511.22;5129572;27;39222;-85
2022/02/11 19:33:23;;;;;;;3.33;1.37;;;;;;;4.65;58.45;100490.38;5132185;27;40453;-83
2022/02/11 19:35:54;;;;;;;4.27;1.10;;;;;;;4.84;58.44;100513.75;5131123;27;42956;-83
2022/02/11 19:38:22;;;;;;;2.53;1.27;;;;;;;4.91;57.95;100531.19;5139085;27;43464;-82
2022/02/11 19:40:56;;;;;;;1.53;0.87;;;;;;;4.99;58.14;100521.44;5126771;27;38676;-83
2022/02/11 19:43:26;;;;;;;0.80;0.80;;;;;;;5.04;57.94;100535.38;5136162;27;40836;-84
2022/02/11 19:45:55;;;;;;;1.83;0.93;;;;;;;4.81;57.79;100485.81;5138691;27;44104;-84
2022/02/11 19:48:23;;;;;;;1.23;0.80;;;;;;;5.17;57.87;100547.47;5129506;27;42197;-83
2022/02/11 19:50:51;;;;;;;2.43;1.00;;;;;;;5.02;58.00;100510.91;5125149;27;38794;-84
2022/02/11 19:53:19;;;;;;;3.10;1.40;;;;;;;5.25;57.92;100545.59;5121164;27;42508;-83
2022/02/11 19:55:47;;;;;;;1.30;1.10;;;;;;;5.08;58.10;100505.53;5148844;27;42742;-82
2022/02/11 19:58:16;;;;;;;1.37;0.97;;;;;;;4.94;58.10;100481.25;5120121;27;42371;-82
2022/02/11 20:00:44;;;;;;;2.40;1.30;;;;;;;5.25;57.89;100529.81;5126013;27;39399;-83
2022/02/11 20:03:13;;;;;;;1.70;1.00;;;;;;;5.10;58.22;100514.28;5115124;27;41734;-83
2022/02/11 20:05:41;;;;;;;1.83;1.00;;;;;;;5.36;58.15;100558.56;5131179;27;43384;-84
2022/02/11 20:08:08;;;;;;;1.10;1.00;;;;;;;5.25;58.30;100535.06;5119001;27;41203;-83
2022/02/11 20:10:36;;;;;;;1.33;1.17;;;;;;;5.23;58.07;100539.47;5130092;27;40077;-82
2022/02/11 20:13:04;;;;;;;1.80;0.90;;;;;;;5.15;58.62;100533.47;5134945;27;40734;-85
2022/02/11 20:15:32;;;;;;;2.37;0.90;;;;;;;4.99;59.03;100524.06;5121259;27;41693;-83
2022/02/11 20:18:02;;;;;;;0.97;0.70;;;;;;;4.99;59.15;100530.19;5132013;27;41084;-85
2022/02/11 20:20:32;;;;;;;2.17;1.00;;;;;;;4.97;59.29;100539.81;5122140;27;38524;-85
2022/02/11 20:23:00;;;;;;;3.37;0.93;;;;;;;5.06;59.69;100554.63;5151033;27;42942;-83
2022/02/11 20:25:27;;;;;;;3.20;1.20;;;;;;;5.00;59.32;100552.06;5134986;27;41737;-83
2022/02/11 20:27:56;;;;;;;1.37;0.90;;;;;;;5.02;59.31;100561.66;5135435;27;41490;-84
2022/02/11 20:30:28;;;;;;;2.80;0.70;;;;;;;4.94;59.15;100554.78;5146925;27;40744;-84
2022/02/11 20:32:56;;;;;;;1.07;0.80;;;;;;;4.96;59.73;100564.34;5143161;27;40591;-84
2022/02/11 20:35:29;;;;;;;1.23;0.70;;;;;;;4.77;59.94;100540.97;5122765;27;44113;-83
2022/02/11 20:37:58;;;;;;;0.63;0.63;;;;;;;4.79;59.88;100573.31;5145066;27;42432;-84
2022/02/11 20:40:26;;;;;;;0.77;0.77;;;;;;;4.58;60.12;100550.78;5132053;27;38994;-85